Comunidad Estella, Puerto Rico
Current Conditions -  °F | °C
As of 12:50 PM on Tuesday 21 Oct 2014 (Local Time) from TJBQ Reporting Station
Scattered Clouds Scattered Clouds  
Wind Chill: 88°   Ceiling: Unl
Heat Index: 96°   Visibility: 10mi
Dew Point: 73°   Wind: 13mph
Humidity: 62%   Direction: 50°NE
Pressure: 29.95"   Gusts: NA
Location:  18.3427°N, 67.2504°W
Report Text: TJBQ 211650Z 05011KT 10SM SCT090 31/23 A2995 RMK RWY08 - ATIS X
Loading
Personal Weather Stations






























Interactive Weather Map
Tropical Storm Tracking
New forecast layout! Learn more

10-Day Weather Forecast

Advertisements
Track Severe Weather on mobile